sensor_id;sensor_type;location;lat;lon;timestamp;P1;durP1;ratioP1;P2;durP2;ratioP2
77612;SDS011;66777;52.282;5.960;2023-09-08T00:00:47;700.33;;;678.90;;
77612;SDS011;66777;52.282;5.960;2023-09-08T00:03:13;710.15;;;688.30;;
77612;SDS011;66777;52.282;5.960;2023-09-08T00:05:38;707.63;;;685.88;;
77612;SDS011;66777;52.282;5.960;2023-09-08T00:08:04;687.92;;;667.05;;
77612;SDS011;66777;52.282;5.960;2023-09-08T00:10:30;708.90;;;686.90;;
77612;SDS011;66777;52.282;5.960;2023-09-08T00:12:55;708.85;;;686.88;;
77612;SDS011;66777;52.282;5.960;2023-09-08T00:15:21;708.45;;;686.60;;
77612;SDS011;66777;52.282;5.960;2023-09-08T00:17:46;697.50;;;676.08;;
77612;SDS011;66777;52.282;5.960;2023-09-08T00:20:12;706.33;;;684.53;;
77612;SDS011;66777;52.282;5.960;2023-09-08T00:22:38;707.03;;;685.08;;
77612;SDS011;66777;52.282;5.960;2023-09-08T00:25:04;705.80;;;684.15;;
77612;SDS011;66777;52.282;5.960;2023-09-08T00:27:31;711.30;;;689.25;;
77612;SDS011;66777;52.282;5.960;2023-09-08T00:29:57;710.45;;;688.40;;
77612;SDS011;66777;52.282;5.960;2023-09-08T00:32:23;704.47;;;682.85;;
77612;SDS011;66777;52.282;5.960;2023-09-08T00:34:48;707.47;;;685.53;;
77612;SDS011;66777;52.282;5.960;2023-09-08T00:37:14;701.50;;;680.10;;
77612;SDS011;66777;52.282;5.960;2023-09-08T00:39:39;707.33;;;685.55;;
77612;SDS011;66777;52.282;5.960;2023-09-08T00:42:05;693.40;;;672.15;;
77612;SDS011;66777;52.282;5.960;2023-09-08T00:44:32;713.33;;;691.15;;
77612;SDS011;66777;52.282;5.960;2023-09-08T00:46:57;686.83;;;665.92;;
77612;SDS011;66777;52.282;5.960;2023-09-08T00:49:23;705.33;;;683.50;;
77612;SDS011;66777;52.282;5.960;2023-09-08T00:51:49;705.95;;;684.30;;
77612;SDS011;66777;52.282;5.960;2023-09-08T00:54:16;692.92;;;671.88;;
77612;SDS011;66777;52.282;5.960;2023-09-08T00:56:42;708.13;;;686.25;;
77612;SDS011;66777;52.282;5.960;2023-09-08T00:59:09;712.10;;;689.97;;
77612;SDS011;66777;52.282;5.960;2023-09-08T01:01:34;688.80;;;667.83;;
77612;SDS011;66777;52.282;5.960;2023-09-08T01:04:00;705.05;;;683.50;;
77612;SDS011;66777;52.282;5.960;2023-09-08T01:06:27;691.22;;;670.10;;
77612;SDS011;66777;52.282;5.960;2023-09-08T01:08:53;704.13;;;682.60;;
77612;SDS011;66777;52.282;5.960;2023-09-08T01:11:20;704.63;;;683.28;;
77612;SDS011;66777;52.282;5.960;2023-09-08T01:13:47;697.38;;;676.15;;
77612;SDS011;66777;52.282;5.960;2023-09-08T01:16:12;684.10;;;663.42;;
77612;SDS011;66777;52.282;5.960;2023-09-08T01:18:38;681.72;;;661.45;;
77612;SDS011;66777;52.282;5.960;2023-09-08T01:26:57;695.28;;;674.22;;
77612;SDS011;66777;52.282;5.960;2023-09-08T01:29:24;695.35;;;674.38;;
77612;SDS011;66777;52.282;5.960;2023-09-08T01:31:51;695.63;;;674.55;;
77612;SDS011;66777;52.282;5.960;2023-09-08T01:34:17;698.30;;;677.17;;
77612;SDS011;66777;52.282;5.960;2023-09-08T01:36:44;698.97;;;677.92;;
77612;SDS011;66777;52.282;5.960;2023-09-08T01:39:10;691.53;;;670.92;;
77612;SDS011;66777;52.282;5.960;2023-09-08T01:41:36;698.00;;;676.90;;
77612;SDS011;66777;52.282;5.960;2023-09-08T01:44:01;692.30;;;671.58;;
77612;SDS011;66777;52.282;5.960;2023-09-08T01:46:33;678.85;;;658.88;;
77612;SDS011;66777;52.282;5.960;2023-09-08T01:48:59;696.92;;;676.10;;
77612;SDS011;66777;52.282;5.960;2023-09-08T01:51:25;700.20;;;679.10;;
77612;SDS011;66777;52.282;5.960;2023-09-08T01:53:50;700.38;;;679.15;;
77612;SDS011;66777;52.282;5.960;2023-09-08T01:56:16;696.33;;;675.00;;
77612;SDS011;66777;52.282;5.960;2023-09-08T01:58:42;694.20;;;673.40;;
77612;SDS011;66777;52.282;5.960;2023-09-08T02:01:08;691.72;;;671.05;;
77612;SDS011;66777;52.282;5.960;2023-09-08T02:03:34;694.67;;;673.97;;
77612;SDS011;66777;52.282;5.960;2023-09-08T02:06:00;695.15;;;674.03;;
77612;SDS011;66777;52.282;5.960;2023-09-08T02:08:26;668.00;;;648.30;;
77612;SDS011;66777;52.282;5.960;2023-09-08T02:10:52;695.38;;;674.60;;
77612;SDS011;66777;52.282;5.960;2023-09-08T02:13:17;698.80;;;677.72;;
77612;SDS011;66777;52.282;5.960;2023-09-08T02:15:43;698.13;;;677.35;;
77612;SDS011;66777;52.282;5.960;2023-09-08T02:18:09;696.42;;;675.58;;
77612;SDS011;66777;52.282;5.960;2023-09-08T02:20:34;691.67;;;670.92;;
77612;SDS011;66777;52.282;5.960;2023-09-08T02:23:04;693.10;;;672.58;;
77612;SDS011;66777;52.282;5.960;2023-09-08T02:25:30;689.92;;;669.60;;
77612;SDS011;66777;52.282;5.960;2023-09-08T02:27:56;692.20;;;671.55;;
77612;SDS011;66777;52.282;5.960;2023-09-08T02:30:22;685.45;;;664.95;;
77612;SDS011;66777;52.282;5.960;2023-09-08T02:32:48;684.47;;;664.10;;
77612;SDS011;66777;52.282;5.960;2023-09-08T02:35:13;687.10;;;666.78;;
77612;SDS011;66777;52.282;5.960;2023-09-08T02:37:39;692.95;;;672.13;;
77612;SDS011;66777;52.282;5.960;2023-09-08T02:40:06;686.50;;;666.05;;
77612;SDS011;66777;52.282;5.960;2023-09-08T02:42:32;690.60;;;669.95;;
77612;SDS011;66777;52.282;5.960;2023-09-08T02:44:58;687.15;;;666.50;;
77612;SDS011;66777;52.282;5.960;2023-09-08T02:47:24;692.45;;;671.53;;
77612;SDS011;66777;52.282;5.960;2023-09-08T02:49:50;678.78;;;658.58;;
77612;SDS011;66777;52.282;5.960;2023-09-08T02:52:15;667.38;;;647.80;;
77612;SDS011;66777;52.282;5.960;2023-09-08T02:54:41;684.42;;;664.17;;
77612;SDS011;66777;52.282;5.960;2023-09-08T02:57:06;688.33;;;668.00;;
77612;SDS011;66777;52.282;5.960;2023-09-08T02:59:32;690.60;;;670.03;;
77612;SDS011;66777;52.282;5.960;2023-09-08T03:01:59;686.53;;;666.25;;
77612;SDS011;66777;52.282;5.960;2023-09-08T03:04:24;688.85;;;668.38;;
77612;SDS011;66777;52.282;5.960;2023-09-08T03:06:50;692.60;;;671.85;;
77612;SDS011;66777;52.282;5.960;2023-09-08T03:09:16;691.08;;;670.33;;
77612;SDS011;66777;52.282;5.960;2023-09-08T03:11:42;682.28;;;662.30;;
77612;SDS011;66777;52.282;5.960;2023-09-08T03:14:08;667.72;;;648.53;;
77612;SDS011;66777;52.282;5.960;2023-09-08T03:16:34;684.75;;;664.58;;
77612;SDS011;66777;52.282;5.960;2023-09-08T03:19:00;689.88;;;669.63;;
77612;SDS011;66777;52.282;5.960;2023-09-08T03:21:25;686.72;;;666.45;;
77612;SDS011;66777;52.282;5.960;2023-09-08T03:23:51;687.22;;;666.90;;
77612;SDS011;66777;52.282;5.960;2023-09-08T03:26:17;687.72;;;667.35;;
77612;SDS011;66777;52.282;5.960;2023-09-08T03:28:42;683.90;;;663.80;;
77612;SDS011;66777;52.282;5.960;2023-09-08T03:31:09;689.70;;;669.50;;
77612;SDS011;66777;52.282;5.960;2023-09-08T03:33:35;669.22;;;649.83;;
77612;SDS011;66777;52.282;5.960;2023-09-08T03:36:01;685.72;;;665.63;;
77612;SDS011;66777;52.282;5.960;2023-09-08T03:38:27;683.22;;;663.00;;
77612;SDS011;66777;52.282;5.960;2023-09-08T03:40:53;683.15;;;663.17;;
77612;SDS011;66777;52.282;5.960;2023-09-08T03:43:19;660.13;;;641.30;;
77612;SDS011;66777;52.282;5.960;2023-09-08T03:45:45;690.35;;;669.75;;
77612;SDS011;66777;52.282;5.960;2023-09-08T03:48:12;680.22;;;660.22;;
77612;SDS011;66777;52.282;5.960;2023-09-08T03:50:38;691.33;;;670.78;;
77612;SDS011;66777;52.282;5.960;2023-09-08T03:53:03;690.67;;;670.50;;
77612;SDS011;66777;52.282;5.960;2023-09-08T03:55:30;683.42;;;663.67;;
77612;SDS011;66777;52.282;5.960;2023-09-08T03:57:55;685.08;;;665.10;;
77612;SDS011;66777;52.282;5.960;2023-09-08T04:00:22;684.03;;;663.83;;
77612;SDS011;66777;52.282;5.960;2023-09-08T04:02:50;689.75;;;669.60;;
77612;SDS011;66777;52.282;5.960;2023-09-08T04:05:16;669.92;;;650.53;;
77612;SDS011;66777;52.282;5.960;2023-09-08T04:07:43;678.92;;;658.95;;
77612;SDS011;66777;52.282;5.960;2023-09-08T04:10:12;683.45;;;663.55;;
77612;SDS011;66777;52.282;5.960;2023-09-08T04:12:39;683.05;;;662.67;;
77612;SDS011;66777;52.282;5.960;2023-09-08T04:15:05;685.55;;;665.53;;
77612;SDS011;66777;52.282;5.960;2023-09-08T04:17:31;683.90;;;663.90;;
77612;SDS011;66777;52.282;5.960;2023-09-08T04:19:57;678.45;;;658.63;;
77612;SDS011;66777;52.282;5.960;2023-09-08T04:22:23;684.38;;;664.35;;
77612;SDS011;66777;52.282;5.960;2023-09-08T04:24:48;679.78;;;659.97;;
77612;SDS011;66777;52.282;5.960;2023-09-08T04:27:14;661.28;;;642.40;;
77612;SDS011;66777;52.282;5.960;2023-09-08T04:29:40;676.53;;;657.00;;
77612;SDS011;66777;52.282;5.960;2023-09-08T04:32:06;663.25;;;644.15;;
77612;SDS011;66777;52.282;5.960;2023-09-08T04:34:38;679.33;;;659.47;;
77612;SDS011;66777;52.282;5.960;2023-09-08T04:37:04;681.97;;;661.90;;
77612;SDS011;66777;52.282;5.960;2023-09-08T04:39:30;687.70;;;667.38;;
77612;SDS011;66777;52.282;5.960;2023-09-08T04:41:56;678.03;;;658.30;;
77612;SDS011;66777;52.282;5.960;2023-09-08T04:44:22;677.72;;;658.38;;
77612;SDS011;66777;52.282;5.960;2023-09-08T04:46:47;680.15;;;660.35;;
77612;SDS011;66777;52.282;5.960;2023-09-08T04:49:14;680.40;;;660.53;;
77612;SDS011;66777;52.282;5.960;2023-09-08T04:51:40;678.50;;;658.65;;
77612;SDS011;66777;52.282;5.960;2023-09-08T04:54:06;679.78;;;659.90;;
77612;SDS011;66777;52.282;5.960;2023-09-08T04:56:31;679.03;;;659.35;;
77612;SDS011;66777;52.282;5.960;2023-09-08T04:58:57;674.28;;;654.92;;
77612;SDS011;66777;52.282;5.960;2023-09-08T05:01:25;674.13;;;654.38;;
77612;SDS011;66777;52.282;5.960;2023-09-08T05:03:51;672.78;;;653.63;;
77612;SDS011;66777;52.282;5.960;2023-09-08T05:06:17;672.63;;;653.40;;
77612;SDS011;66777;52.282;5.960;2023-09-08T05:08:43;683.85;;;664.17;;
77612;SDS011;66777;52.282;5.960;2023-09-08T05:11:09;675.78;;;655.83;;
77612;SDS011;66777;52.282;5.960;2023-09-08T05:13:35;677.53;;;657.75;;
77612;SDS011;66777;52.282;5.960;2023-09-08T05:16:01;677.15;;;657.60;;
77612;SDS011;66777;52.282;5.960;2023-09-08T05:18:36;679.10;;;659.35;;
77612;SDS011;66777;52.282;5.960;2023-09-08T05:21:07;676.45;;;656.85;;
77612;SDS011;66777;52.282;5.960;2023-09-08T05:23:33;672.40;;;652.95;;
77612;SDS011;66777;52.282;5.960;2023-09-08T05:26:00;682.35;;;662.70;;
77612;SDS011;66777;52.282;5.960;2023-09-08T05:28:26;680.70;;;661.03;;
77612;SDS011;66777;52.282;5.960;2023-09-08T05:30:52;673.67;;;654.50;;
77612;SDS011;66777;52.282;5.960;2023-09-08T05:33:21;665.60;;;646.78;;
77612;SDS011;66777;52.282;5.960;2023-09-08T05:35:47;655.42;;;636.65;;
77612;SDS011;66777;52.282;5.960;2023-09-08T05:38:13;679.00;;;659.25;;
77612;SDS011;66777;52.282;5.960;2023-09-08T05:40:39;654.88;;;636.30;;
77612;SDS011;66777;52.282;5.960;2023-09-08T05:43:05;670.13;;;650.90;;
77612;SDS011;66777;52.282;5.960;2023-09-08T05:45:31;678.25;;;658.78;;
77612;SDS011;66777;52.282;5.960;2023-09-08T05:47:57;679.85;;;660.28;;
77612;SDS011;66777;52.282;5.960;2023-09-08T05:50:23;680.60;;;660.83;;
77612;SDS011;66777;52.282;5.960;2023-09-08T05:52:48;677.55;;;657.80;;
77612;SDS011;66777;52.282;5.960;2023-09-08T05:55:14;673.05;;;653.83;;
77612;SDS011;66777;52.282;5.960;2023-09-08T05:57:40;681.22;;;661.35;;
77612;SDS011;66777;52.282;5.960;2023-09-08T06:00:06;679.20;;;659.30;;
77612;SDS011;66777;52.282;5.960;2023-09-08T06:02:32;677.13;;;657.47;;
77612;SDS011;66777;52.282;5.960;2023-09-08T06:04:58;675.35;;;655.63;;
77612;SDS011;66777;52.282;5.960;2023-09-08T06:07:26;680.70;;;660.92;;
77612;SDS011;66777;52.282;5.960;2023-09-08T06:09:52;671.88;;;652.38;;
77612;SDS011;66777;52.282;5.960;2023-09-08T06:12:18;679.80;;;659.95;;
77612;SDS011;66777;52.282;5.960;2023-09-08T06:14:44;681.58;;;661.80;;
77612;SDS011;66777;52.282;5.960;2023-09-08T06:17:10;679.40;;;659.55;;
77612;SDS011;66777;52.282;5.960;2023-09-08T06:19:36;676.70;;;656.60;;
77612;SDS011;66777;52.282;5.960;2023-09-08T06:22:02;670.33;;;650.65;;
77612;SDS011;66777;52.282;5.960;2023-09-08T06:24:28;681.17;;;661.10;;
77612;SDS011;66777;52.282;5.960;2023-09-08T06:26:53;683.92;;;663.85;;
77612;SDS011;66777;52.282;5.960;2023-09-08T06:29:19;681.08;;;660.95;;
77612;SDS011;66777;52.282;5.960;2023-09-08T06:31:45;679.63;;;659.40;;
77612;SDS011;66777;52.282;5.960;2023-09-08T06:34:11;663.17;;;643.90;;
77612;SDS011;66777;52.282;5.960;2023-09-08T06:36:36;681.53;;;660.78;;
77612;SDS011;66777;52.282;5.960;2023-09-08T06:39:02;680.58;;;660.22;;
77612;SDS011;66777;52.282;5.960;2023-09-08T06:41:29;678.15;;;657.97;;
77612;SDS011;66777;52.282;5.960;2023-09-08T06:43:55;689.47;;;668.85;;
77612;SDS011;66777;52.282;5.960;2023-09-08T06:46:21;684.88;;;664.00;;
77612;SDS011;66777;52.282;5.960;2023-09-08T06:48:46;683.92;;;663.38;;
77612;SDS011;66777;52.282;5.960;2023-09-08T06:51:12;690.85;;;669.85;;
77612;SDS011;66777;52.282;5.960;2023-09-08T06:53:37;683.22;;;662.65;;
77612;SDS011;66777;52.282;5.960;2023-09-08T06:56:04;671.55;;;650.70;;
77612;SDS011;66777;52.282;5.960;2023-09-08T06:58:29;688.35;;;667.05;;
77612;SDS011;66777;52.282;5.960;2023-09-08T07:00:55;685.83;;;664.78;;
77612;SDS011;66777;52.282;5.960;2023-09-08T07:03:21;690.67;;;669.22;;
77612;SDS011;66777;52.282;5.960;2023-09-08T07:05:49;693.42;;;672.22;;
77612;SDS011;66777;52.282;5.960;2023-09-08T07:08:15;689.70;;;668.15;;
77612;SDS011;66777;52.282;5.960;2023-09-08T07:10:43;692.25;;;670.42;;
77612;SDS011;66777;52.282;5.960;2023-09-08T07:13:08;668.08;;;647.78;;
77612;SDS011;66777;52.282;5.960;2023-09-08T07:15:34;695.28;;;673.63;;
77612;SDS011;66777;52.282;5.960;2023-09-08T07:18:00;694.08;;;672.17;;
77612;SDS011;66777;52.282;5.960;2023-09-08T07:20:26;695.63;;;673.78;;
77612;SDS011;66777;52.282;5.960;2023-09-08T07:22:52;694.78;;;673.03;;
77612;SDS011;66777;52.282;5.960;2023-09-08T07:25:17;698.88;;;676.63;;
77612;SDS011;66777;52.282;5.960;2023-09-08T07:27:44;695.92;;;673.90;;
77612;SDS011;66777;52.282;5.960;2023-09-08T07:30:10;683.03;;;661.20;;
77612;SDS011;66777;52.282;5.960;2023-09-08T07:32:37;701.40;;;678.90;;
77612;SDS011;66777;52.282;5.960;2023-09-08T07:35:04;701.60;;;679.22;;
77612;SDS011;66777;52.282;5.960;2023-09-08T07:37:30;697.88;;;675.90;;
77612;SDS011;66777;52.282;5.960;2023-09-08T07:39:55;712.88;;;690.25;;
77612;SDS011;66777;52.282;5.960;2023-09-08T07:42:21;686.80;;;664.65;;
77612;SDS011;66777;52.282;5.960;2023-09-08T07:44:48;699.13;;;676.42;;
77612;SDS011;66777;52.282;5.960;2023-09-08T07:47:14;714.65;;;691.53;;
77612;SDS011;66777;52.282;5.960;2023-09-08T07:49:44;711.13;;;688.05;;
77612;SDS011;66777;52.282;5.960;2023-09-08T07:52:12;707.47;;;684.55;;
77612;SDS011;66777;52.282;5.960;2023-09-08T07:54:38;713.10;;;690.17;;
77612;SDS011;66777;52.282;5.960;2023-09-08T07:57:04;723.40;;;699.65;;
77612;SDS011;66777;52.282;5.960;2023-09-08T07:59:29;705.38;;;682.67;;
77612;SDS011;66777;52.282;5.960;2023-09-08T08:01:56;725.08;;;700.85;;
77612;SDS011;66777;52.282;5.960;2023-09-08T08:04:22;729.33;;;705.15;;
77612;SDS011;66777;52.282;5.960;2023-09-08T08:06:47;711.08;;;687.47;;
77612;SDS011;66777;52.282;5.960;2023-09-08T08:09:14;724.95;;;701.08;;
77612;SDS011;66777;52.282;5.960;2023-09-08T08:11:40;722.25;;;698.47;;
77612;SDS011;66777;52.282;5.960;2023-09-08T08:14:05;709.47;;;685.90;;
77612;SDS011;66777;52.282;5.960;2023-09-08T08:16:31;713.90;;;690.33;;
77612;SDS011;66777;52.282;5.960;2023-09-08T08:18:56;732.45;;;707.78;;
77612;SDS011;66777;52.282;5.960;2023-09-08T08:21:22;733.30;;;708.72;;
77612;SDS011;66777;52.282;5.960;2023-09-08T08:23:48;714.47;;;690.38;;
77612;SDS011;66777;52.282;5.960;2023-09-08T08:26:15;717.75;;;693.53;;
77612;SDS011;66777;52.282;5.960;2023-09-08T08:28:42;714.35;;;690.45;;
77612;SDS011;66777;52.282;5.960;2023-09-08T08:31:08;719.33;;;695.33;;
77612;SDS011;66777;52.282;5.960;2023-09-08T08:33:34;714.00;;;689.67;;
77612;SDS011;66777;52.282;5.960;2023-09-08T08:36:00;704.30;;;680.88;;
77612;SDS011;66777;52.282;5.960;2023-09-08T08:38:26;709.38;;;685.63;;
77612;SDS011;66777;52.282;5.960;2023-09-08T08:40:52;714.65;;;691.00;;
77612;SDS011;66777;52.282;5.960;2023-09-08T08:43:18;719.85;;;696.05;;
77612;SDS011;66777;52.282;5.960;2023-09-08T08:45:44;719.40;;;695.53;;
77612;SDS011;66777;52.282;5.960;2023-09-08T08:48:13;729.90;;;705.85;;
77612;SDS011;66777;52.282;5.960;2023-09-08T08:50:40;722.40;;;698.80;;
77612;SDS011;66777;52.282;5.960;2023-09-08T08:53:08;717.30;;;693.75;;
77612;SDS011;66777;52.282;5.960;2023-09-08T08:55:34;720.55;;;697.03;;
77612;SDS011;66777;52.282;5.960;2023-09-08T08:58:04;720.17;;;696.22;;
77612;SDS011;66777;52.282;5.960;2023-09-08T09:00:31;713.63;;;690.30;;
77612;SDS011;66777;52.282;5.960;2023-09-08T09:03:00;727.72;;;703.45;;
77612;SDS011;66777;52.282;5.960;2023-09-08T09:05:27;727.97;;;703.65;;
77612;SDS011;66777;52.282;5.960;2023-09-08T09:07:53;730.75;;;706.55;;
77612;SDS011;66777;52.282;5.960;2023-09-08T09:10:22;713.78;;;690.10;;
77612;SDS011;66777;52.282;5.960;2023-09-08T09:12:48;704.35;;;681.53;;
77612;SDS011;66777;52.282;5.960;2023-09-08T09:15:14;726.95;;;702.60;;
77612;SDS011;66777;52.282;5.960;2023-09-08T09:17:41;728.58;;;704.28;;
77612;SDS011;66777;52.282;5.960;2023-09-08T09:22:39;704.10;;;681.13;;
77612;SDS011;66777;52.282;5.960;2023-09-08T09:25:06;718.53;;;694.78;;
77612;SDS011;66777;52.282;5.960;2023-09-08T09:27:32;714.92;;;691.08;;
77612;SDS011;66777;52.282;5.960;2023-09-08T09:30:02;711.72;;;688.22;;
77612;SDS011;66777;52.282;5.960;2023-09-08T09:32:28;709.53;;;686.28;;
77612;SDS011;66777;52.282;5.960;2023-09-08T09:34:56;727.60;;;703.63;;
77612;SDS011;66777;52.282;5.960;2023-09-08T09:37:26;716.72;;;693.13;;
77612;SDS011;66777;52.282;5.960;2023-09-08T09:39:52;713.92;;;690.50;;
77612;SDS011;66777;52.282;5.960;2023-09-08T09:42:22;721.45;;;697.65;;
77612;SDS011;66777;52.282;5.960;2023-09-08T09:44:48;719.30;;;695.72;;
77612;SDS011;66777;52.282;5.960;2023-09-08T09:47:16;717.05;;;693.22;;
77612;SDS011;66777;52.282;5.960;2023-09-08T09:49:42;720.92;;;696.97;;
77612;SDS011;66777;52.282;5.960;2023-09-08T09:52:12;723.25;;;698.92;;
77612;SDS011;66777;52.282;5.960;2023-09-08T09:54:42;724.58;;;700.67;;
77612;SDS011;66777;52.282;5.960;2023-09-08T09:57:12;705.50;;;682.33;;
77612;SDS011;66777;52.282;5.960;2023-09-08T09:59:42;714.88;;;691.20;;
77612;SDS011;66777;52.282;5.960;2023-09-08T10:02:08;721.85;;;697.70;;
77612;SDS011;66777;52.282;5.960;2023-09-08T10:04:38;721.58;;;697.22;;
77612;SDS011;66777;52.282;5.960;2023-09-08T10:07:06;726.95;;;702.30;;
77612;SDS011;66777;52.282;5.960;2023-09-08T10:09:33;718.47;;;694.40;;
77612;SDS011;66777;52.282;5.960;2023-09-08T10:12:06;724.47;;;700.03;;
77612;SDS011;66777;52.282;5.960;2023-09-08T10:14:35;719.80;;;695.72;;
77612;SDS011;66777;52.282;5.960;2023-09-08T10:17:04;719.17;;;695.03;;
77612;SDS011;66777;52.282;5.960;2023-09-08T10:19:33;728.50;;;704.10;;
77612;SDS011;66777;52.282;5.960;2023-09-08T10:22:06;741.88;;;716.63;;
77612;SDS011;66777;52.282;5.960;2023-09-08T10:24:38;730.10;;;705.20;;
77612;SDS011;66777;52.282;5.960;2023-09-08T10:27:09;724.63;;;700.25;;
77612;SDS011;66777;52.282;5.960;2023-09-08T10:29:37;721.35;;;697.20;;
77612;SDS011;66777;52.282;5.960;2023-09-08T10:32:06;728.65;;;704.17;;
77612;SDS011;66777;52.282;5.960;2023-09-08T10:34:34;726.28;;;701.67;;
77612;SDS011;66777;52.282;5.960;2023-09-08T10:37:01;725.17;;;700.58;;
77612;SDS011;66777;52.282;5.960;2023-09-08T10:39:31;726.83;;;701.83;;
77612;SDS011;66777;52.282;5.960;2023-09-08T10:44:55;725.70;;;701.15;;
77612;SDS011;66777;52.282;5.960;2023-09-08T10:47:23;726.22;;;701.60;;
77612;SDS011;66777;52.282;5.960;2023-09-08T10:49:50;727.05;;;702.45;;
77612;SDS011;66777;52.282;5.960;2023-09-08T10:52:18;730.03;;;705.08;;
77612;SDS011;66777;52.282;5.960;2023-09-08T10:54:50;732.67;;;707.63;;
77612;SDS011;66777;52.282;5.960;2023-09-08T10:57:17;726.38;;;701.58;;
77612;SDS011;66777;52.282;5.960;2023-09-08T10:59:55;745.50;;;719.53;;
77612;SDS011;66777;52.282;5.960;2023-09-08T11:02:39;747.30;;;721.60;;
77612;SDS011;66777;52.282;5.960;2023-09-08T11:05:14;731.45;;;706.40;;
77612;SDS011;66777;52.282;5.960;2023-09-08T11:07:44;746.85;;;721.20;;
77612;SDS011;66777;52.282;5.960;2023-09-08T11:10:11;734.92;;;709.50;;
77612;SDS011;66777;52.282;5.960;2023-09-08T11:12:37;732.45;;;707.40;;
77612;SDS011;66777;52.282;5.960;2023-09-08T11:15:04;734.95;;;709.50;;
77612;SDS011;66777;52.282;5.960;2023-09-08T11:20:00;730.92;;;706.22;;
77612;SDS011;66777;52.282;5.960;2023-09-08T11:22:26;736.60;;;711.45;;
77612;SDS011;66777;52.282;5.960;2023-09-08T11:24:52;745.75;;;719.63;;
77612;SDS011;66777;52.282;5.960;2023-09-08T11:27:22;739.83;;;714.15;;
77612;SDS011;66777;52.282;5.960;2023-09-08T11:29:49;732.53;;;706.92;;
77612;SDS011;66777;52.282;5.960;2023-09-08T11:32:15;741.45;;;715.42;;
77612;SDS011;66777;52.282;5.960;2023-09-08T11:34:41;740.88;;;714.85;;
77612;SDS011;66777;52.282;5.960;2023-09-08T11:37:10;749.53;;;723.28;;
77612;SDS011;66777;52.282;5.960;2023-09-08T11:39:38;750.15;;;723.90;;
77612;SDS011;66777;52.282;5.960;2023-09-08T11:42:04;744.08;;;717.83;;
77612;SDS011;66777;52.282;5.960;2023-09-08T11:44:31;745.88;;;719.58;;
77612;SDS011;66777;52.282;5.960;2023-09-08T11:46:57;744.03;;;717.88;;
77612;SDS011;66777;52.282;5.960;2023-09-08T11:49:24;748.60;;;722.08;;
77612;SDS011;66777;52.282;5.960;2023-09-08T11:51:50;742.92;;;716.35;;
77612;SDS011;66777;52.282;5.960;2023-09-08T11:54:16;750.53;;;723.30;;
77612;SDS011;66777;52.282;5.960;2023-09-08T11:56:43;746.85;;;720.05;;
77612;SDS011;66777;52.282;5.960;2023-09-08T11:59:10;747.88;;;720.20;;
77612;SDS011;66777;52.282;5.960;2023-09-08T12:01:38;748.33;;;720.78;;
77612;SDS011;66777;52.282;5.960;2023-09-08T12:04:04;752.33;;;724.92;;
77612;SDS011;66777;52.282;5.960;2023-09-08T12:06:30;750.92;;;723.53;;
77612;SDS011;66777;52.282;5.960;2023-09-08T12:08:56;753.83;;;726.28;;
77612;SDS011;66777;52.282;5.960;2023-09-08T12:11:36;764.33;;;736.38;;
77612;SDS011;66777;52.282;5.960;2023-09-08T12:14:07;751.20;;;723.03;;
77612;SDS011;66777;52.282;5.960;2023-09-08T12:16:37;750.55;;;722.63;;
77612;SDS011;66777;52.282;5.960;2023-09-08T12:19:03;755.22;;;727.65;;
77612;SDS011;66777;52.282;5.960;2023-09-08T12:21:28;754.22;;;726.15;;
77612;SDS011;66777;52.282;5.960;2023-09-08T12:23:56;749.45;;;721.47;;
77612;SDS011;66777;52.282;5.960;2023-09-08T12:26:24;754.35;;;726.15;;
77612;SDS011;66777;52.282;5.960;2023-09-08T12:28:51;753.17;;;724.97;;
77612;SDS011;66777;52.282;5.960;2023-09-08T12:31:17;757.20;;;728.97;;
77612;SDS011;66777;52.282;5.960;2023-09-08T12:33:43;756.95;;;729.05;;
77612;SDS011;66777;52.282;5.960;2023-09-08T12:36:10;757.63;;;729.60;;
77612;SDS011;66777;52.282;5.960;2023-09-08T12:38:39;756.00;;;728.17;;
77612;SDS011;66777;52.282;5.960;2023-09-08T12:41:06;758.17;;;730.08;;
77612;SDS011;66777;52.282;5.960;2023-09-08T12:43:31;758.13;;;729.88;;
77612;SDS011;66777;52.282;5.960;2023-09-08T12:45:57;756.72;;;728.80;;
77612;SDS011;66777;52.282;5.960;2023-09-08T12:48:23;768.58;;;739.35;;
77612;SDS011;66777;52.282;5.960;2023-09-08T12:50:49;763.03;;;734.72;;
77612;SDS011;66777;52.282;5.960;2023-09-08T12:53:15;760.10;;;731.75;;
77612;SDS011;66777;52.282;5.960;2023-09-08T12:58:11;763.40;;;734.92;;
77612;SDS011;66777;52.282;5.960;2023-09-08T13:00:36;765.22;;;736.35;;
77612;SDS011;66777;52.282;5.960;2023-09-08T13:03:02;768.40;;;739.30;;
77612;SDS011;66777;52.282;5.960;2023-09-08T13:05:28;768.25;;;738.90;;
77612;SDS011;66777;52.282;5.960;2023-09-08T13:07:54;763.08;;;734.15;;
77612;SDS011;66777;52.282;5.960;2023-09-08T13:10:20;767.53;;;738.45;;
77612;SDS011;66777;52.282;5.960;2023-09-08T13:12:46;770.00;;;740.60;;
77612;SDS011;66777;52.282;5.960;2023-09-08T13:15:14;769.90;;;739.72;;
77612;SDS011;66777;52.282;5.960;2023-09-08T13:17:39;770.30;;;740.67;;
77612;SDS011;66777;52.282;5.960;2023-09-08T13:20:05;766.10;;;736.97;;
77612;SDS011;66777;52.282;5.960;2023-09-08T13:22:32;767.45;;;737.28;;
77612;SDS011;66777;52.282;5.960;2023-09-08T13:24:57;770.17;;;739.80;;
77612;SDS011;66777;52.282;5.960;2023-09-08T13:27:23;775.42;;;744.70;;
77612;SDS011;66777;52.282;5.960;2023-09-08T13:29:49;777.22;;;747.33;;
77612;SDS011;66777;52.282;5.960;2023-09-08T13:32:14;764.63;;;734.78;;
77612;SDS011;66777;52.282;5.960;2023-09-08T13:34:41;774.15;;;744.10;;
77612;SDS011;66777;52.282;5.960;2023-09-08T13:37:08;770.50;;;740.42;;
77612;SDS011;66777;52.282;5.960;2023-09-08T13:39:34;778.65;;;748.25;;
77612;SDS011;66777;52.282;5.960;2023-09-08T13:42:01;774.88;;;744.50;;
77612;SDS011;66777;52.282;5.960;2023-09-08T13:44:27;769.40;;;739.35;;
77612;SDS011;66777;52.282;5.960;2023-09-08T13:46:54;774.20;;;744.25;;
77612;SDS011;66777;52.282;5.960;2023-09-08T13:49:20;769.38;;;739.42;;
77612;SDS011;66777;52.282;5.960;2023-09-08T13:51:47;770.95;;;741.08;;
77612;SDS011;66777;52.282;5.960;2023-09-08T13:54:16;781.00;;;750.70;;
77612;SDS011;66777;52.282;5.960;2023-09-08T13:56:41;774.00;;;743.50;;
77612;SDS011;66777;52.282;5.960;2023-09-08T13:59:07;770.65;;;740.40;;
77612;SDS011;66777;52.282;5.960;2023-09-08T14:01:34;775.90;;;745.15;;
77612;SDS011;66777;52.282;5.960;2023-09-08T14:04:01;776.00;;;745.25;;
77612;SDS011;66777;52.282;5.960;2023-09-08T14:06:28;775.35;;;744.67;;
77612;SDS011;66777;52.282;5.960;2023-09-08T14:08:53;771.92;;;741.22;;